Time;durP1;ratioP1;P1;durP2;ratioP2;P2;SDS_P1;SDS_P2;PMS_P1;PMS_P2;Temp;Humidity;BMP_temperature;BMP_pressure;BME280_temperature;BME280_humidity;BME280_pressure;Samples;Min_cycle;Max_cycle;Signal;HPM_P1;HPM_P2
2023/03/23 00:10:38;;;;;;;85.60;56.70;;;;;;;6.21;74.78;101026.41;112014;1234;61376;-94
2023/03/23 00:14:42;;;;;;;86.40;56.20;;;;;;;6.14;75.02;101025.41;110929;1236;72993;-95
2023/03/23 00:19:03;;;;;;;66.60;43.40;;;;;;;6.04;75.36;101019.36;110326;1241;60315;-96
2023/03/23 00:57:13;;;;;;;69.90;46.80;;;;;;;6.04;74.22;101017.27;110739;1241;58971;-95
2023/03/23 01:13:50;;;;;;;66.70;43.80;;;;;;;5.69;75.35;101017.38;111336;1244;58995;-96
2023/03/23 01:23:51;;;;;;;;;;;;;;;;;;;;;
2023/03/23 01:27:17;;;;;;;70.70;47.90;;;;;;;5.54;75.48;101012.13;110470;1243;73539;-94
2023/03/23 01:58:43;;;;;;;62.20;40.60;;;;;;;5.42;76.11;101017.58;110739;1243;63175;-94
2023/03/23 02:05:58;;;;;;;57.60;39.30;;;;;;;5.34;76.21;101016.45;109668;1244;60990;-96
2023/03/23 02:08:51;;;;;;;61.20;39.50;;;;;;;5.33;76.08;101019.60;110356;1244;59945;-96
2023/03/23 02:11:49;;;;;;;59.80;40.70;;;;;;;5.30;76.22;101017.80;111371;1234;73990;-96
2023/03/23 02:14:41;;;;;;;66.50;40.00;;;;;;;5.26;76.60;101019.83;110157;1232;63305;-96
2023/03/23 02:17:28;;;;;;;60.60;41.40;;;;;;;5.25;76.98;101021.77;111698;1230;74130;-94
2023/03/23 02:20:53;;;;;;;59.00;40.10;;;;;;;5.26;76.71;101022.25;112245;1231;59363;-96
2023/03/23 02:23:57;;;;;;;57.20;37.70;;;;;;;5.23;76.31;101021.14;111737;1236;61007;-96
2023/03/23 02:27:08;;;;;;;60.10;36.80;;;;;;;5.19;76.29;101025.59;111508;1235;72275;-96
2023/03/23 02:55:54;;;;;;;51.60;34.30;;;;;;;4.95;77.09;101026.29;112072;1228;59136;31
2023/03/23 02:59:49;;;;;;;;;;;;;;;;;;;;;
2023/03/23 03:07:24;;;;;;;74.30;48.00;;;;;;;5.01;77.07;101031.84;112678;1230;71286;-96
2023/03/23 03:11:13;;;;;;;74.70;48.90;;;;;;;5.03;76.36;101030.73;112816;1231;60210;-96
2023/03/23 03:21:51;;;;;;;105.00;66.10;;;;;;;4.86;75.93;101034.73;112826;1231;61705;-96
2023/03/23 03:25:46;;;;;;;112.80;66.80;;;;;;;4.75;76.31;101036.09;112755;1232;70387;-96
2023/03/23 03:29:33;;;;;;;79.10;47.40;;;;;;;4.72;76.52;101037.05;112349;1237;62106;-96
2023/03/23 03:40:21;;;;;;;86.00;56.80;;;;;;;4.71;76.76;101033.09;112376;1235;64217;-95
2023/03/23 03:43:50;;;;;;;72.20;46.10;;;;;;;4.71;76.68;101037.58;112206;1241;71077;-96
2023/03/23 03:46:58;;;;;;;51.40;37.00;;;;;;;4.66;76.95;101041.36;111745;1237;59597;-95
2023/03/23 03:50:12;;;;;;;52.90;34.70;;;;;;;4.62;76.64;101040.61;111900;1237;60595;-96
2023/03/23 07:58:56;;;;;;;57.20;40.60;;;;;;;25.31;31.40;101092.98;111641;1238;59045;-96
2023/03/23 08:07:12;;;;;;;48.30;41.80;;;;;;;25.81;29.76;101088.05;104263;1231;10141595;-95
2023/03/23 08:10:15;;;;;;;48.70;41.90;;;;;;;25.91;29.06;101090.83;112630;1231;71765;-95
2023/03/23 08:13:22;;;;;;;48.00;42.50;;;;;;;25.65;29.17;101084.02;112564;1232;62078;-95
2023/03/23 08:16:15;;;;;;;51.70;40.10;;;;;;;25.32;29.48;101081.73;112250;1234;59112;-92
2023/03/23 08:19:50;;;;;;;;;;;;;;;;;;;;;
2023/03/23 08:23:25;;;;;;;49.90;41.90;;;;;;;25.33;29.67;101084.68;112384;1231;63262;-89
2023/03/23 08:26:44;;;;;;;47.40;39.30;;;;;;;25.60;29.42;101084.06;112022;1234;73942;-96
2023/03/23 08:30:20;;;;;;;52.20;41.00;;;;;;;25.78;29.14;101086.93;112022;1238;58838;-93
2023/03/23 08:33:47;;;;;;;54.60;39.80;;;;;;;25.86;29.58;101084.27;111986;1239;59508;-96
2023/03/23 08:40:19;;;;;;;44.70;38.80;;;;;;;26.33;28.39;101077.20;112607;1232;63116;-95
2023/03/23 08:43:04;;;;;;;43.60;35.90;;;;;;;26.47;27.75;101074.30;112583;1232;74677;-95
2023/03/23 08:46:11;;;;;;;43.00;29.30;;;;;;;26.68;27.35;101065.72;112233;1237;59459;-96
2023/03/23 08:49:38;;;;;;;31.20;25.70;;;;;;;26.83;27.20;101064.73;112483;1231;59618;-94
2023/03/23 08:52:37;;;;;;;29.80;23.00;;;;;;;26.86;26.40;101062.09;111896;1238;73996;-94
2023/03/23 08:55:21;;;;;;;27.70;22.20;;;;;;;26.94;26.22;101059.68;111749;1238;64711;-94
2023/03/23 08:58:41;;;;;;;25.80;20.70;;;;;;;27.15;25.79;101055.82;112486;1230;72478;-95
2023/03/23 09:01:46;;;;;;;23.30;19.50;;;;;;;27.36;25.53;101057.87;112309;1238;58998;-94
2023/03/23 09:05:31;;;;;;;18.00;16.10;;;;;;;27.44;25.32;101050.39;112143;1232;60529;-95
2023/03/23 09:12:46;;;;;;;21.00;14.80;;;;;;;27.39;24.41;101049.38;112683;1231;63004;-96
2023/03/23 09:22:45;;;;;;;18.10;15.00;;;;;;;27.23;24.59;101033.48;112780;1231;60769;-93
2023/03/23 09:25:20;;;;;;;16.90;14.10;;;;;;;27.38;24.48;101027.66;112712;1230;72820;-96
2023/03/23 09:27:53;;;;;;;15.50;13.80;;;;;;;27.51;24.80;101022.39;112063;1235;64713;-96
2023/03/23 09:31:26;;;;;;;22.60;15.70;;;;;;;27.60;24.41;101015.23;112261;1231;71967;-94
2023/03/23 10:00:07;;;;;;;18.00;10.00;;;;;;;24.78;26.46;100985.41;112220;1231;58811;-96
2023/03/23 10:04:09;;;;;;;15.80;10.90;;;;;;;24.88;26.50;100981.79;112594;1231;74101;-96
2023/03/23 10:07:09;;;;;;;12.30;11.00;;;;;;;24.37;26.60;100978.94;112208;1231;64402;-94
2023/03/23 10:09:39;;;;;;;15.90;10.70;;;;;;;23.95;27.28;100984.42;112100;1234;72371;-96
2023/03/23 10:13:33;;;;;;;17.00;10.60;;;;;;;23.57;27.63;100986.04;111367;1239;60418;-95
2023/03/23 10:17:12;;;;;;;17.90;11.10;;;;;;;23.02;28.09;100982.16;112586;1231;59513;-96
2023/03/23 10:25:11;;;;;;;15.80;9.50;;;;;;;22.07;29.11;100981.55;112381;1231;61435;-96
2023/03/23 10:28:07;;;;;;;16.00;9.20;;;;;;;21.60;29.76;100975.29;112134;1235;72407;-95
2023/03/23 10:31:11;;;;;;;15.60;8.50;;;;;;;21.29;30.33;100971.81;112205;1235;58767;-96
2023/03/23 10:34:13;;;;;;;14.10;6.10;;;;;;;21.44;30.56;100969.05;111026;1247;59917;-95
2023/03/23 10:37:01;;;;;;;9.90;6.00;;;;;;;21.69;30.28;100967.63;110930;1246;74358;-93
2023/03/23 10:39:58;;;;;;;15.20;7.50;;;;;;;22.00;30.20;100963.34;111332;1247;62839;-94
2023/03/23 10:42:35;;;;;;;10.90;7.40;;;;;;;22.44;29.86;100958.88;112488;1231;72364;-95
2023/03/23 10:46:02;;;;;;;9.30;6.30;;;;;;;22.97;29.49;100950.23;112135;1234;58809;-94
2023/03/23 10:48:38;;;;;;;15.90;8.00;;;;;;;23.40;28.59;100948.48;112130;1233;61355;-96
2023/03/23 10:51:12;;;;;;;11.70;6.80;;;;;;;23.79;28.20;100944.23;112186;1234;73852;-94
2023/03/23 10:53:49;;;;;;;14.60;6.70;;;;;;;24.13;28.06;100939.02;112467;1235;63763;-94
2023/03/23 10:56:28;;;;;;;12.80;7.20;;;;;;;24.58;27.36;100934.46;112278;1235;72724;-92
2023/03/23 10:59:00;;;;;;;13.60;6.60;;;;;;;24.89;27.36;100931.70;112450;1234;59237;-95
2023/03/23 11:01:32;;;;;;;12.40;7.80;;;;;;;25.08;27.02;100928.86;111883;1241;61327;-96
2023/03/23 11:04:00;;;;;;;12.20;7.40;;;;;;;25.23;26.81;100926.35;111853;1237;73411;-93
2023/03/23 11:06:32;;;;;;;16.20;9.40;;;;;;;25.40;26.31;100929.73;112024;1237;63549;-94
2023/03/23 11:09:15;;;;;;;14.40;10.00;;;;;;;25.32;26.29;100921.96;111753;1237;72948;-95
2023/03/23 11:11:50;;;;;;;13.60;8.60;;;;;;;25.16;26.33;100922.36;111998;1237;60076;-95
2023/03/23 11:14:42;;;;;;;18.20;8.70;;;;;;;25.10;26.61;100918.25;111752;1238;60058;-96
2023/03/23 11:17:24;;;;;;;11.70;9.30;;;;;;;25.05;26.40;100913.79;111943;1234;71856;-96
2023/03/23 11:19:54;;;;;;;14.20;9.10;;;;;;;25.15;26.70;100914.02;112283;1235;63675;-96
2023/03/23 11:22:28;;;;;;;11.90;9.00;;;;;;;25.29;26.55;100913.86;112060;1235;72640;-95
2023/03/23 11:24:57;;;;;;;16.90;11.60;;;;;;;25.51;26.44;100908.17;112249;1234;60172;-94
2023/03/23 11:27:26;;;;;;;16.20;10.00;;;;;;;25.79;26.61;100906.29;112294;1234;60183;-94
2023/03/23 11:30:27;;;;;;;9.60;8.60;;;;;;;25.97;25.88;100904.45;112308;1234;72842;-95
2023/03/23 11:32:57;;;;;;;17.40;8.40;;;;;;;25.86;25.68;100899.15;112524;1228;65125;-96
2023/03/23 11:35:30;;;;;;;14.30;8.40;;;;;;;25.78;25.97;100898.13;112638;1228;74229;-95
2023/03/23 11:37:58;;;;;;;18.80;9.00;;;;;;;25.51;26.25;100895.90;112482;1228;60133;-96
2023/03/23 11:40:31;;;;;;;16.00;9.30;;;;;;;25.24;26.52;100892.44;112382;1235;60203;-95
2023/03/23 11:43:01;;;;;;;17.10;9.90;;;;;;;25.13;26.67;100895.20;112394;1233;73116;-96
2023/03/23 11:46:04;;;;;;;13.70;9.20;;;;;;;25.09;26.85;100891.19;112376;1234;63732;-96
2023/03/23 11:48:49;;;;;;;14.30;9.00;;;;;;;24.99;26.98;100888.17;112365;1234;72877;-96
2023/03/23 11:55:33;;;;;;;18.20;10.20;;;;;;;24.37;26.87;100881.55;113244;1229;59984;-96
2023/03/23 11:58:12;;;;;;;13.30;10.20;;;;;;;23.99;27.38;100882.34;112839;1228;72930;-95
2023/03/23 12:00:47;;;;;;;17.20;9.60;;;;;;;23.81;27.84;100874.45;112930;1228;63569;-94
2023/03/23 12:03:57;;;;;;;12.80;9.80;;;;;;;23.69;28.03;100872.80;112681;1234;72388;-93
2023/03/23 12:06:43;;;;;;;13.70;10.00;;;;;;;23.72;28.38;100870.77;112726;1228;61428;-94
2023/03/23 12:09:18;;;;;;;17.40;10.30;;;;;;;23.74;28.01;100865.59;112881;1234;59154;-93
2023/03/23 12:12:11;;;;;;;16.50;10.30;;;;;;;23.62;28.12;100863.55;113101;1228;71713;-93
2023/03/23 12:15:31;;;;;;;13.10;10.20;;;;;;;23.53;28.33;100864.13;113019;1228;63797;-95
2023/03/23 12:18:22;;;;;;;19.00;11.40;;;;;;;23.35;28.38;100862.66;112180;1238;71881;-95
2023/03/23 12:21:13;;;;;;;16.00;11.10;;;;;;;23.09;28.44;100863.16;112295;1237;60093;-93
2023/03/23 12:23:57;;;;;;;13.10;9.90;;;;;;;22.89;29.49;100859.24;112172;1238;59878;-96
2023/03/23 12:26:37;;;;;;;16.50;11.10;;;;;;;22.85;29.16;100861.52;112174;1237;72892;-95
2023/03/23 12:29:30;;;;;;;19.60;10.50;;;;;;;22.79;29.03;100863.52;111913;1240;63543;-94
2023/03/23 12:37:31;;;;;;;16.40;10.30;;;;;;;22.31;29.96;100854.19;112591;1233;59576;-93
2023/03/23 12:42:08;;;;;;;22.60;10.90;;;;;;;22.14;30.40;100848.92;112055;1242;58753;-96
2023/03/23 12:46:41;;;;;;;16.80;10.20;;;;;;;21.80;30.48;100841.73;112904;1230;72686;-95
2023/03/23 13:13:40;;;;;;;15.40;11.60;;;;;;;20.90;32.19;100835.27;111363;1245;63561;-95
2023/03/23 14:03:29;;;;;;;17.60;11.80;;;;;;;19.08;35.12;100818.28;112618;1230;58794;-96
2023/03/23 14:08:30;;;;;;;13.90;9.90;;;;;;;18.78;35.46;100822.80;112830;1232;58889;-95
2023/03/23 14:42:13;;;;;;;18.30;10.60;;;;;;;17.91;36.78;100816.11;112378;1230;59181;-96
2023/03/23 14:46:15;;;;;;;15.90;10.50;;;;;;;17.83;36.87;100819.65;111671;1241;72271;-96
2023/03/23 14:54:14;;;;;;;18.80;10.60;;;;;;;17.61;37.10;100815.11;109907;1255;72932;-96
2023/03/23 14:56:49;;;;;;;23.70;10.60;;;;;;;17.55;37.22;100814.39;109673;1260;60561;-94
2023/03/23 14:59:18;;;;;;;14.60;10.70;;;;;;;17.50;37.29;100818.52;109583;1259;61159;-95
2023/03/23 15:01:46;;;;;;;15.40;10.20;;;;;;;17.47;37.24;100820.39;109770;1259;74822;-94
2023/03/23 15:04:27;;;;;;;20.50;10.40;;;;;;;17.44;37.37;100818.67;109770;1259;62932;-95
2023/03/23 15:07:21;;;;;;;15.50;9.90;;;;;;;17.38;37.52;100818.12;109758;1258;72581;-96
2023/03/23 15:09:51;;;;;;;21.10;11.10;;;;;;;17.37;37.64;100822.14;109585;1258;61178;-96
2023/03/23 15:12:24;;;;;;;17.30;11.20;;;;;;;17.36;37.71;100822.92;109802;1260;60111;-95
2023/03/23 15:15:03;;;;;;;23.10;11.30;;;;;;;17.35;37.79;100822.34;109791;1260;74019;-96
2023/03/23 15:49:39;;;;;;;21.80;12.70;;;;;;;16.67;39.91;100843.33;113128;1228;60004;-96
2023/03/23 16:51:13;;;;;;;81.30;38.20;;;;;;;14.40;49.56;100870.92;112465;1229;62003;-96
2023/03/23 17:39:01;;;;;;;181.70;114.20;;;;;;;12.88;55.80;100887.81;112452;1236;72276;31
2023/03/23 17:49:40;;;;;;;193.50;115.80;;;;;;;12.45;57.37;100887.08;112297;1235;58980;31
2023/03/23 17:52:49;;;;;;;;;;;;;;;12.30;57.81;100895.95;112172;1237;60676;-95
2023/03/23 17:56:34;;;;;;;235.50;127.50;;;;;;;12.14;57.97;100894.27;112463;1231;73002;-96
2023/03/23 18:47:58;;;;;;;159.30;91.10;;;;;;;10.79;63.19;100911.30;111743;1232;71904;-96
2023/03/23 18:56:04;;;;;;;152.20;86.20;;;;;;;10.73;62.81;100901.71;112601;1232;72827;-96
2023/03/23 19:04:12;;;;;;;174.10;101.40;;;;;;;10.62;63.12;100909.29;112265;1235;58892;-94
2023/03/23 19:30:26;;;;;;;159.60;91.70;;;;;;;10.23;66.00;100905.81;112647;1230;73581;-96
2023/03/23 19:33:37;;;;;;;167.20;94.10;;;;;;;10.24;66.01;100909.56;112236;1230;61702;-96
2023/03/23 19:41:09;;;;;;;161.30;94.90;;;;;;;10.23;65.82;100907.17;112572;1234;72448;-95
2023/03/23 19:45:07;;;;;;;153.50;90.30;;;;;;;10.11;66.45;100905.02;112414;1231;63783;-96
2023/03/23 19:55:46;;;;;;;168.10;93.10;;;;;;;9.88;66.36;100912.73;112617;1231;58615;31
2023/03/23 20:07:11;;;;;;;145.90;85.00;;;;;;;9.70;67.63;100908.24;111353;1230;2093572;-95
2023/03/23 20:35:44;;;;;;;141.90;84.90;;;;;;;9.11;67.71;100903.52;107505;1279;70904;-95
2023/03/23 20:42:45;;;;;;;135.70;87.90;;;;;;;8.97;68.11;100897.75;106567;1283;74052;-96
2023/03/23 20:45:35;;;;;;;144.60;93.00;;;;;;;8.96;68.29;100901.98;106541;1282;63266;-96
2023/03/23 20:48:44;;;;;;;142.40;92.20;;;;;;;8.97;68.32;100909.44;107013;1282;59675;-95
2023/03/23 20:52:34;;;;;;;135.60;86.00;;;;;;;8.98;68.42;100908.36;107229;1280;72244;-96
2023/03/23 20:56:27;;;;;;;149.00;86.50;;;;;;;8.97;68.32;100909.11;106327;1286;65636;-95
2023/03/23 20:59:22;;;;;;;138.30;87.70;;;;;;;8.92;68.37;100908.80;106708;1280;72140;-96
2023/03/23 21:02:28;;;;;;;152.30;88.00;;;;;;;8.89;68.09;100908.94;107715;1273;61166;-96
2023/03/23 21:05:41;;;;;;;72.30;42.80;;;;;;;8.82;68.17;100905.29;107050;1276;61476;-96
2023/03/23 21:09:18;;;;;;;114.30;68.00;;;;;;;8.79;68.35;100903.19;106472;1283;71849;-96
2023/03/23 21:12:08;;;;;;;112.90;69.00;;;;;;;8.77;68.69;100896.46;106660;1283;61666;-96
2023/03/23 21:14:53;;;;;;;132.10;80.50;;;;;;;8.76;68.93;100905.59;107206;1268;73716;-93
2023/03/23 21:18:08;;;;;;;138.60;84.80;;;;;;;8.75;68.92;100902.11;107687;1277;59835;-96
2023/03/23 21:21:18;;;;;;;149.60;86.30;;;;;;;8.77;68.97;100897.19;105541;1285;59514;-94
2023/03/23 21:23:51;;;;;;;141.40;87.10;;;;;;;8.74;68.96;100898.49;105745;1279;72355;-94
2023/03/23 21:26:22;;;;;;;140.10;91.00;;;;;;;8.72;69.06;100894.95;106049;1279;64325;-95
2023/03/23 21:28:59;;;;;;;136.60;86.90;;;;;;;8.70;68.94;100899.23;107167;1280;71594;-91
2023/03/23 21:31:43;;;;;;;115.30;69.80;;;;;;;8.67;69.01;100896.05;107580;1280;59104;-92
2023/03/23 21:34:27;;;;;;;109.20;70.90;;;;;;;8.61;68.93;100889.73;105461;1280;59547;-95
2023/03/23 21:36:56;;;;;;;120.70;76.70;;;;;;;8.64;69.15;100892.35;106236;1279;72025;-94
2023/03/23 21:39:55;;;;;;;121.30;75.60;;;;;;;8.67;69.18;100889.98;106650;1279;66634;-95
2023/03/23 21:44:09;;;;;;;136.10;80.50;;;;;;;8.68;69.22;100888.70;107269;1267;72803;31
2023/03/23 21:48:37;;;;;;;178.50;105.00;;;;;;;8.67;69.13;100884.38;107502;1279;59592;-96
2023/03/23 21:55:54;;;;;;;188.20;115.40;;;;;;;8.66;68.95;100886.36;108685;1270;73687;-96
2023/03/23 21:59:37;;;;;;;189.90;112.00;;;;;;;8.61;68.74;100883.95;108762;1268;63810;-93
2023/03/23 22:03:41;;;;;;;168.70;107.60;;;;;;;8.54;69.06;100884.29;107838;1268;73126;-96
2023/03/23 22:07:06;;;;;;;177.20;110.10;;;;;;;8.41;69.21;100876.20;107516;1274;59412;-96
2023/03/23 22:09:45;;;;;;;158.80;99.00;;;;;;;8.35;69.44;100876.80;106960;1284;59248;-96
2023/03/23 22:22:45;;;;;;;151.20;93.80;;;;;;;8.24;70.63;100869.82;108884;1269;71810;-95
2023/03/23 22:27:47;;;;;;;153.00;97.40;;;;;;;8.24;70.92;100867.06;108382;1261;59178;-96
2023/03/23 22:35:11;;;;;;;154.30;93.00;;;;;;;8.29;71.04;100862.43;108732;1266;73856;-96
2023/03/23 22:44:19;;;;;;;149.80;91.60;;;;;;;8.18;71.08;100862.41;108368;1273;71495;-95
2023/03/23 22:47:45;;;;;;;129.80;81.90;;;;;;;8.11;70.65;100861.71;107469;1277;60858;-96
2023/03/23 22:55:48;;;;;;;126.50;76.50;;;;;;;8.00;71.08;100851.58;107567;1285;74595;-96
2023/03/23 22:59:00;;;;;;;133.10;81.00;;;;;;;8.00;71.61;100851.42;107232;1281;62061;-96
2023/03/23 23:06:18;;;;;;;132.40;82.20;;;;;;;8.11;72.40;100848.30;108538;1270;59843;-96
2023/03/23 23:14:25;;;;;;;136.70;86.20;;;;;;;8.16;71.52;100845.13;108225;1266;71488;-96
2023/03/23 23:21:49;;;;;;;151.00;87.00;;;;;;;8.01;70.87;100838.98;106971;1280;71122;-95
2023/03/23 23:24:52;;;;;;;135.20;82.60;;;;;;;7.94;70.99;100837.08;106305;1279;60245;-95
2023/03/23 23:28:22;;;;;;;133.20;79.90;;;;;;;7.88;71.28;100835.23;106791;1279;61336;-96
2023/03/23 23:59:44;;;;;;;111.80;73.20;;;;;;;8.11;71.14;100827.21;109919;1263;612655;-96
